LFCR/RDZ METAR and TAF weather

Enter ICAO airport designator
Station Type Date Time Source
LFCR METAR 2020/10/22 04:00 UTC NOAA

LFCR 220400Z AUTO 14021KT CAVOK 16/12 Q1014 NOSIG


Station Type Date Time Source
LFCR Decoded METAR 2020/10/22 04:00 UTC NOAA

Rodez, France (LFCR) 44-24N 002-29E 580M
Oct 22, 2020 - 12:00 AM EDT / 2020.10.22 0400 UTC
Wind: from the SE (140 degrees) at 24 MPH (21 KT):0
Visibility: greater than 7 mile(s):0
Temperature: 60 F (16 C)
Dew Point: 53 F (12 C)
Relative Humidity: 77%
Pressure (altimeter): 29.94 in. Hg (1014 hPa)
ob: LFCR 220400Z AUTO 14021KT CAVOK 16/12 Q1014 NOSIG
cycle: 4

Station Type Date Time Source
LFCR TAF 2020/10/21 18:44 UTC NOAA

TAF LFCR 211700Z 2118/2218 14025G38KT 9999 SCT020
TEMPO 2118/2203 BKN012
BECMG 2122/2124 15016G28KT
TEMPO 2206/2212 -RA BKN013 SCT060TCU BKN070

Example: see airport list